sensor_id;sensor_type;location;lat;lon;timestamp;temperature;humidity
21518;DHT22;61765;45.794;24.150;2023-01-01T00:03:28;14.70;82.90
21518;DHT22;61765;45.794;24.150;2023-01-01T00:11:36;14.50;83.60
21518;DHT22;61765;45.794;24.150;2023-01-01T00:19:42;14.20;84.80
21518;DHT22;61765;45.794;24.150;2023-01-01T00:27:50;14.40;84.10
21518;DHT22;61765;45.794;24.150;2023-01-01T00:35:57;14.60;83.80
21518;DHT22;61765;45.794;24.150;2023-01-01T00:44:05;14.50;83.40
21518;DHT22;61765;45.794;24.150;2023-01-01T00:52:10;14.40;83.60
21518;DHT22;61765;45.794;24.150;2023-01-01T01:00:19;14.40;84.00
21518;DHT22;61765;45.794;24.150;2023-01-01T01:08:25;14.00;84.70
21518;DHT22;61765;45.794;24.150;2023-01-01T01:16:35;13.90;84.80
21518;DHT22;61765;45.794;24.150;2023-01-01T01:24:42;13.90;84.80
21518;DHT22;61765;45.794;24.150;2023-01-01T01:32:50;14.00;84.90
21518;DHT22;61765;45.794;24.150;2023-01-01T01:40:56;14.00;84.60
21518;DHT22;61765;45.794;24.150;2023-01-01T01:49:09;13.90;85.30
21518;DHT22;61765;45.794;24.150;2023-01-01T01:57:17;13.90;85.20
21518;DHT22;61765;45.794;24.150;2023-01-01T02:05:26;13.90;85.20
21518;DHT22;61765;45.794;24.150;2023-01-01T02:13:32;14.10;85.00
21518;DHT22;61765;45.794;24.150;2023-01-01T02:21:50;13.80;85.40
21518;DHT22;61765;45.794;24.150;2023-01-01T02:30:01;13.60;85.80
21518;DHT22;61765;45.794;24.150;2023-01-01T02:38:12;13.50;86.60
21518;DHT22;61765;45.794;24.150;2023-01-01T02:46:22;13.50;86.30
21518;DHT22;61765;45.794;24.150;2023-01-01T02:54:32;13.30;86.60
21518;DHT22;61765;45.794;24.150;2023-01-01T03:02:53;13.20;87.50
21518;DHT22;61765;45.794;24.150;2023-01-01T03:11:07;13.50;86.90
21518;DHT22;61765;45.794;24.150;2023-01-01T03:19:18;13.70;86.30
21518;DHT22;61765;45.794;24.150;2023-01-01T03:27:27;14.00;85.70
21518;DHT22;61765;45.794;24.150;2023-01-01T03:35:41;14.00;85.60
21518;DHT22;61765;45.794;24.150;2023-01-01T03:43:50;14.10;85.40
21518;DHT22;61765;45.794;24.150;2023-01-01T03:52:11;14.10;84.90
21518;DHT22;61765;45.794;24.150;2023-01-01T04:00:22;14.20;85.10
21518;DHT22;61765;45.794;24.150;2023-01-01T04:08:33;14.40;84.50
21518;DHT22;61765;45.794;24.150;2023-01-01T04:16:39;14.50;84.20
21518;DHT22;61765;45.794;24.150;2023-01-01T04:24:47;14.30;84.40
21518;DHT22;61765;45.794;24.150;2023-01-01T04:32:53;14.40;84.10
21518;DHT22;61765;45.794;24.150;2023-01-01T04:41:02;14.10;85.10
21518;DHT22;61765;45.794;24.150;2023-01-01T04:49:08;13.80;85.70
21518;DHT22;61765;45.794;24.150;2023-01-01T04:57:16;14.00;86.10
21518;DHT22;61765;45.794;24.150;2023-01-01T05:05:21;13.80;85.90
21518;DHT22;61765;45.794;24.150;2023-01-01T05:13:30;14.10;85.80
21518;DHT22;61765;45.794;24.150;2023-01-01T05:21:37;13.60;86.20
21518;DHT22;61765;45.794;24.150;2023-01-01T05:29:46;13.80;86.60
21518;DHT22;61765;45.794;24.150;2023-01-01T05:37:51;13.90;85.90
21518;DHT22;61765;45.794;24.150;2023-01-01T05:46:04;13.80;86.60
21518;DHT22;61765;45.794;24.150;2023-01-01T05:54:10;13.70;87.20
21518;DHT22;61765;45.794;24.150;2023-01-01T06:02:16;14.00;86.70
21518;DHT22;61765;45.794;24.150;2023-01-01T06:10:22;14.00;85.80
21518;DHT22;61765;45.794;24.150;2023-01-01T06:18:32;14.20;85.00
21518;DHT22;61765;45.794;24.150;2023-01-01T06:26:41;14.00;85.40
21518;DHT22;61765;45.794;24.150;2023-01-01T06:34:49;14.40;85.10
21518;DHT22;61765;45.794;24.150;2023-01-01T06:42:54;14.70;84.60
21518;DHT22;61765;45.794;24.150;2023-01-01T06:51:08;14.80;84.40
21518;DHT22;61765;45.794;24.150;2023-01-01T06:59:15;14.80;84.20
21518;DHT22;61765;45.794;24.150;2023-01-01T07:07:25;14.90;84.10
21518;DHT22;61765;45.794;24.150;2023-01-01T07:15:37;15.10;83.80
21518;DHT22;61765;45.794;24.150;2023-01-01T07:23:45;15.50;83.60
21518;DHT22;61765;45.794;24.150;2023-01-01T07:31:59;16.00;82.50
21518;DHT22;61765;45.794;24.150;2023-01-01T07:40:08;16.30;81.20
21518;DHT22;61765;45.794;24.150;2023-01-01T07:48:14;16.40;81.10
21518;DHT22;61765;45.794;24.150;2023-01-01T07:56:25;16.50;80.00
21518;DHT22;61765;45.794;24.150;2023-01-01T08:04:31;16.10;81.50
21518;DHT22;61765;45.794;24.150;2023-01-01T08:12:39;16.50;80.40
21518;DHT22;61765;45.794;24.150;2023-01-01T08:20:45;17.20;78.90
21518;DHT22;61765;45.794;24.150;2023-01-01T08:28:53;17.50;77.80
21518;DHT22;61765;45.794;24.150;2023-01-01T08:36:59;17.60;77.70
21518;DHT22;61765;45.794;24.150;2023-01-01T08:45:08;17.90;76.40
21518;DHT22;61765;45.794;24.150;2023-01-01T08:53:16;17.80;77.40
21518;DHT22;61765;45.794;24.150;2023-01-01T09:01:24;18.20;76.80
21518;DHT22;61765;45.794;24.150;2023-01-01T09:09:30;18.80;75.20
21518;DHT22;61765;45.794;24.150;2023-01-01T09:17:38;19.10;75.30
21518;DHT22;61765;45.794;24.150;2023-01-01T09:25:44;21.50;69.40
21518;DHT22;61765;45.794;24.150;2023-01-01T09:33:53;21.40;67.70
21518;DHT22;61765;45.794;24.150;2023-01-01T09:42:06;21.30;68.40
21518;DHT22;61765;45.794;24.150;2023-01-01T09:50:19;24.10;65.80
21518;DHT22;61765;45.794;24.150;2023-01-01T09:58:29;29.30;56.90
21518;DHT22;61765;45.794;24.150;2023-01-01T10:06:43;32.10;50.70
21518;DHT22;61765;45.794;24.150;2023-01-01T10:14:53;34.60;46.80
21518;DHT22;61765;45.794;24.150;2023-01-01T10:23:13;33.00;45.60
21518;DHT22;61765;45.794;24.150;2023-01-01T10:31:27;27.60;51.00
21518;DHT22;61765;45.794;24.150;2023-01-01T10:39:38;23.00;59.00
21518;DHT22;61765;45.794;24.150;2023-01-01T10:48:13;21.20;63.60
21518;DHT22;61765;45.794;24.150;2023-01-01T10:56:23;20.30;67.60
21518;DHT22;61765;45.794;24.150;2023-01-01T11:04:30;20.30;68.20
21518;DHT22;61765;45.794;24.150;2023-01-01T11:12:39;20.10;68.40
21518;DHT22;61765;45.794;24.150;2023-01-01T11:21:06;19.70;70.60
21518;DHT22;61765;45.794;24.150;2023-01-01T11:29:24;19.50;70.80
21518;DHT22;61765;45.794;24.150;2023-01-01T11:37:35;19.90;70.30
21518;DHT22;61765;45.794;24.150;2023-01-01T11:45:48;20.00;70.40
21518;DHT22;61765;45.794;24.150;2023-01-01T11:54:08;19.80;71.20
21518;DHT22;61765;45.794;24.150;2023-01-01T12:02:25;19.70;71.90
21518;DHT22;61765;45.794;24.150;2023-01-01T12:10:39;20.00;71.00
21518;DHT22;61765;45.794;24.150;2023-01-01T12:18:57;20.00;71.20
21518;DHT22;61765;45.794;24.150;2023-01-01T12:27:15;19.90;72.10
21518;DHT22;61765;45.794;24.150;2023-01-01T12:35:28;19.90;71.70
21518;DHT22;61765;45.794;24.150;2023-01-01T12:43:41;19.70;72.20
21518;DHT22;61765;45.794;24.150;2023-01-01T12:52:01;20.10;70.80
21518;DHT22;61765;45.794;24.150;2023-01-01T13:00:12;19.90;70.90
21518;DHT22;61765;45.794;24.150;2023-01-01T13:08:20;20.50;69.00
21518;DHT22;61765;45.794;24.150;2023-01-01T13:16:34;20.50;69.30
21518;DHT22;61765;45.794;24.150;2023-01-01T13:25:02;19.90;70.10
21518;DHT22;61765;45.794;24.150;2023-01-01T13:33:16;20.30;69.20
21518;DHT22;61765;45.794;24.150;2023-01-01T13:41:32;20.40;69.20
21518;DHT22;61765;45.794;24.150;2023-01-01T13:50:02;20.40;69.40
21518;DHT22;61765;45.794;24.150;2023-01-01T13:58:31;20.40;69.70
21518;DHT22;61765;45.794;24.150;2023-01-01T14:06:49;20.30;70.10
21518;DHT22;61765;45.794;24.150;2023-01-01T14:15:13;20.20;70.60
21518;DHT22;61765;45.794;24.150;2023-01-01T14:23:24;19.80;72.00
21518;DHT22;61765;45.794;24.150;2023-01-01T14:31:40;19.80;71.90
21518;DHT22;61765;45.794;24.150;2023-01-01T14:40:07;19.90;72.20
21518;DHT22;61765;45.794;24.150;2023-01-01T14:48:21;19.60;72.60
21518;DHT22;61765;45.794;24.150;2023-01-01T14:56:31;19.30;73.40
21518;DHT22;61765;45.794;24.150;2023-01-01T15:04:44;19.10;74.00
21518;DHT22;61765;45.794;24.150;2023-01-01T15:12:50;18.90;74.50
21518;DHT22;61765;45.794;24.150;2023-01-01T15:21:00;18.70;75.00
21518;DHT22;61765;45.794;24.150;2023-01-01T15:29:09;18.50;75.50
21518;DHT22;61765;45.794;24.150;2023-01-01T15:37:20;18.30;76.20
21518;DHT22;61765;45.794;24.150;2023-01-01T15:45:29;18.10;76.60
21518;DHT22;61765;45.794;24.150;2023-01-01T15:53:54;18.00;77.10
21518;DHT22;61765;45.794;24.150;2023-01-01T16:02:12;17.90;77.50
21518;DHT22;61765;45.794;24.150;2023-01-01T16:10:21;17.70;77.70
21518;DHT22;61765;45.794;24.150;2023-01-01T16:18:30;17.50;77.90
21518;DHT22;61765;45.794;24.150;2023-01-01T16:26:40;17.40;78.20
21518;DHT22;61765;45.794;24.150;2023-01-01T16:34:46;17.30;78.60
21518;DHT22;61765;45.794;24.150;2023-01-01T16:42:55;17.10;78.80
21518;DHT22;61765;45.794;24.150;2023-01-01T16:51:00;17.00;79.60
21518;DHT22;61765;45.794;24.150;2023-01-01T16:59:09;16.70;79.30
21518;DHT22;61765;45.794;24.150;2023-01-01T17:07:16;16.60;79.80
21518;DHT22;61765;45.794;24.150;2023-01-01T17:15:24;16.40;79.90
21518;DHT22;61765;45.794;24.150;2023-01-01T17:23:33;16.40;80.30
21518;DHT22;61765;45.794;24.150;2023-01-01T17:31:45;16.30;80.60
21518;DHT22;61765;45.794;24.150;2023-01-01T17:39:51;16.20;81.00
21518;DHT22;61765;45.794;24.150;2023-01-01T17:48:00;16.00;81.20
21518;DHT22;61765;45.794;24.150;2023-01-01T17:56:07;15.80;82.00
21518;DHT22;61765;45.794;24.150;2023-01-01T18:04:19;15.80;81.90
21518;DHT22;61765;45.794;24.150;2023-01-01T18:12:24;15.80;82.20
21518;DHT22;61765;45.794;24.150;2023-01-01T18:20:32;15.70;82.10
21518;DHT22;61765;45.794;24.150;2023-01-01T18:28:38;15.60;82.10
21518;DHT22;61765;45.794;24.150;2023-01-01T18:36:46;15.40;82.20
21518;DHT22;61765;45.794;24.150;2023-01-01T18:44:52;15.30;82.30
21518;DHT22;61765;45.794;24.150;2023-01-01T18:53:11;15.10;82.70
21518;DHT22;61765;45.794;24.150;2023-01-01T19:01:22;15.10;82.90
21518;DHT22;61765;45.794;24.150;2023-01-01T19:09:31;15.00;83.50
21518;DHT22;61765;45.794;24.150;2023-01-01T19:17:38;14.90;83.00
21518;DHT22;61765;45.794;24.150;2023-01-01T19:25:59;14.80;83.30
21518;DHT22;61765;45.794;24.150;2023-01-01T19:34:06;14.70;83.40
21518;DHT22;61765;45.794;24.150;2023-01-01T19:42:15;14.70;83.90
21518;DHT22;61765;45.794;24.150;2023-01-01T19:50:20;14.50;84.40
21518;DHT22;61765;45.794;24.150;2023-01-01T19:58:30;14.50;84.90
21518;DHT22;61765;45.794;24.150;2023-01-01T20:06:35;14.30;85.50
21518;DHT22;61765;45.794;24.150;2023-01-01T20:14:44;14.40;85.90
21518;DHT22;61765;45.794;24.150;2023-01-01T20:39:43;14.50;85.40
21518;DHT22;61765;45.794;24.150;2023-01-01T20:47:49;14.40;86.60
21518;DHT22;61765;45.794;24.150;2023-01-01T20:55:57;14.00;87.20
21518;DHT22;61765;45.794;24.150;2023-01-01T21:04:04;14.10;87.50
21518;DHT22;61765;45.794;24.150;2023-01-01T21:12:15;14.30;87.10
21518;DHT22;61765;45.794;24.150;2023-01-01T21:20:20;14.10;86.30
21518;DHT22;61765;45.794;24.150;2023-01-01T21:37:19;13.90;84.90
21518;DHT22;61765;45.794;24.150;2023-01-01T21:45:40;13.90;85.10
21518;DHT22;61765;45.794;24.150;2023-01-01T21:53:49;13.40;86.00
21518;DHT22;61765;45.794;24.150;2023-01-01T22:01:59;13.50;85.70
21518;DHT22;61765;45.794;24.150;2023-01-01T22:10:25;13.60;84.60
21518;DHT22;61765;45.794;24.150;2023-01-01T22:18:37;13.40;84.20
21518;DHT22;61765;45.794;24.150;2023-01-01T22:26:46;12.90;84.80
21518;DHT22;61765;45.794;24.150;2023-01-01T22:34:57;12.70;84.80
21518;DHT22;61765;45.794;24.150;2023-01-01T22:43:12;12.60;85.30
21518;DHT22;61765;45.794;24.150;2023-01-01T22:51:20;12.60;85.70
21518;DHT22;61765;45.794;24.150;2023-01-01T22:59:29;12.60;85.00
21518;DHT22;61765;45.794;24.150;2023-01-01T23:07:35;12.50;84.90
21518;DHT22;61765;45.794;24.150;2023-01-01T23:15:46;12.30;85.50
21518;DHT22;61765;45.794;24.150;2023-01-01T23:24:12;12.20;85.90
21518;DHT22;61765;45.794;24.150;2023-01-01T23:32:20;12.20;86.10
21518;DHT22;61765;45.794;24.150;2023-01-01T23:40:26;12.20;87.10
21518;DHT22;61765;45.794;24.150;2023-01-01T23:48:34;12.10;86.70
21518;DHT22;61765;45.794;24.150;2023-01-01T23:56:40;12.10;87.10
